createdAt,value
2023-01-09T00:00:07.579Z,0.00
2023-01-09T00:01:07.807Z,0.00
2023-01-09T00:02:07.811Z,0.00
2023-01-09T00:03:07.885Z,0.00
2023-01-09T00:04:08.066Z,0.00
2023-01-09T00:05:08.110Z,0.00
2023-01-09T00:06:08.262Z,0.00
2023-01-09T00:07:08.345Z,0.00
2023-01-09T00:08:08.512Z,0.00
2023-01-09T00:09:08.673Z,0.00
2023-01-09T00:10:08.774Z,0.00
2023-01-09T00:11:08.911Z,0.00
2023-01-09T00:12:09.005Z,0.00
2023-01-09T00:13:09.093Z,0.00
2023-01-09T00:14:10.982Z,0.00
2023-01-09T00:15:09.304Z,0.00
2023-01-09T00:16:09.487Z,0.00
2023-01-09T00:17:09.606Z,0.00
2023-01-09T00:18:09.687Z,0.00
2023-01-09T00:19:09.847Z,0.00
2023-01-09T00:20:09.951Z,0.00
2023-01-09T00:21:10.085Z,0.00
2023-01-09T00:22:10.188Z,0.00
2023-01-09T00:23:10.270Z,0.00
2023-01-09T00:24:10.410Z,0.00
2023-01-09T00:25:10.563Z,0.00
2023-01-09T00:26:10.663Z,0.00
2023-01-09T00:27:10.751Z,0.00
2023-01-09T00:28:10.901Z,0.00
2023-01-09T00:29:11.033Z,0.00
2023-01-09T00:30:11.247Z,0.00
2023-01-09T00:31:11.340Z,0.00
2023-01-09T00:32:11.411Z,0.00
2023-01-09T00:33:11.564Z,0.00
2023-01-09T00:34:11.719Z,0.00
2023-01-09T00:35:11.852Z,0.00
2023-01-09T00:36:11.926Z,0.00
2023-01-09T00:37:12.108Z,0.00
2023-01-09T00:38:12.203Z,0.00
2023-01-09T00:39:12.369Z,0.00
2023-01-09T00:40:12.526Z,0.00
2023-01-09T00:41:12.565Z,0.00
2023-01-09T00:42:12.655Z,0.00
2023-01-09T00:43:12.816Z,0.00
2023-01-09T00:44:12.906Z,0.00
2023-01-09T00:45:13.055Z,0.00
2023-01-09T00:46:13.230Z,0.00
2023-01-09T00:47:13.247Z,0.00
2023-01-09T00:48:13.348Z,0.00
2023-01-09T00:49:13.455Z,0.00
2023-01-09T00:50:13.613Z,0.00
2023-01-09T00:51:13.743Z,0.00
2023-01-09T00:52:13.801Z,0.00
2023-01-09T00:53:13.956Z,0.00
2023-01-09T00:54:14.090Z,0.00
2023-01-09T00:55:14.301Z,0.00
2023-01-09T00:56:14.349Z,0.00
2023-01-09T00:57:14.459Z,0.00
2023-01-09T00:58:14.550Z,0.00
2023-01-09T00:59:14.636Z,0.00
2023-01-09T01:00:14.803Z,0.00
2023-01-09T01:01:14.991Z,0.00
2023-01-09T01:02:15.181Z,0.00
2023-01-09T01:03:15.111Z,0.00
2023-01-09T01:04:15.198Z,0.00
2023-01-09T01:05:15.413Z,0.00
2023-01-09T01:06:15.455Z,0.00
2023-01-09T01:07:15.546Z,0.00
2023-01-09T01:08:15.660Z,0.00
2023-01-09T01:09:15.781Z,0.00
2023-01-09T01:10:15.927Z,0.00
2023-01-09T01:11:16.027Z,0.00
2023-01-09T01:12:16.133Z,0.00
2023-01-09T01:13:16.255Z,0.00
2023-01-09T01:14:16.327Z,0.00
2023-01-09T01:15:16.706Z,0.00
2023-01-09T01:16:16.607Z,0.00
2023-01-09T01:17:16.875Z,0.00
2023-01-09T01:18:16.902Z,0.00
2023-01-09T01:19:17.007Z,0.00
2023-01-09T01:20:17.114Z,0.00
2023-01-09T01:21:17.225Z,0.00
2023-01-09T01:22:17.324Z,0.00
2023-01-09T01:23:17.406Z,0.00
2023-01-09T01:24:17.553Z,0.00
2023-01-09T01:25:17.643Z,0.00
2023-01-09T01:26:17.835Z,0.00
2023-01-09T01:27:19.504Z,0.00
2023-01-09T01:28:18.067Z,0.00
2023-01-09T01:29:18.155Z,0.00
2023-01-09T01:30:18.297Z,0.00
2023-01-09T01:31:18.423Z,0.00
2023-01-09T01:32:18.508Z,0.00
2023-01-09T01:33:18.611Z,0.00
2023-01-09T01:34:18.740Z,0.00
2023-01-09T01:35:18.858Z,0.00
2023-01-09T01:36:18.948Z,0.00
2023-01-09T01:37:19.197Z,0.00
2023-01-09T01:38:19.168Z,0.00
2023-01-09T01:39:19.258Z,0.00
2023-01-09T01:40:19.391Z,0.00
2023-01-09T01:41:19.487Z,0.00
2023-01-09T01:42:19.601Z,0.00
2023-01-09T01:43:19.698Z,0.00
2023-01-09T01:44:19.808Z,0.00
2023-01-09T01:45:19.926Z,0.00
2023-01-09T01:46:20.088Z,0.00
2023-01-09T01:47:20.148Z,0.00
2023-01-09T01:48:20.247Z,0.00
2023-01-09T01:49:20.349Z,0.00
2023-01-09T01:50:20.507Z,0.00
2023-01-09T01:51:20.544Z,0.00
2023-01-09T01:52:20.682Z,0.00
2023-01-09T01:53:20.772Z,0.00
2023-01-09T01:54:20.923Z,0.00
2023-01-09T01:55:21.003Z,0.00
2023-01-09T01:56:21.116Z,0.00
2023-01-09T01:57:21.283Z,0.00
2023-01-09T01:58:21.324Z,0.00
2023-01-09T01:59:21.444Z,0.00
2023-01-09T02:00:21.577Z,0.00
2023-01-09T02:01:21.738Z,0.00
2023-01-09T02:02:21.948Z,0.00
2023-01-09T02:03:21.878Z,0.00
2023-01-09T02:04:21.989Z,0.00
2023-01-09T02:05:22.190Z,0.00
2023-01-09T02:06:22.235Z,0.00
2023-01-09T02:07:22.351Z,0.00
2023-01-09T02:08:22.444Z,0.00
2023-01-09T02:09:22.554Z,0.00
2023-01-09T02:10:22.701Z,0.00
2023-01-09T02:11:22.760Z,0.00
2023-01-09T02:12:22.886Z,0.00
2023-01-09T02:13:22.980Z,0.00
2023-01-09T02:14:23.092Z,0.00
2023-01-09T02:15:23.211Z,0.00
2023-01-09T02:16:23.347Z,0.00
2023-01-09T02:17:23.498Z,0.00
2023-01-09T02:18:23.538Z,0.00
2023-01-09T02:19:23.654Z,0.00
2023-01-09T02:20:23.776Z,0.00
2023-01-09T02:21:23.875Z,0.00
2023-01-09T02:22:23.971Z,0.00
2023-01-09T02:23:24.099Z,0.00
2023-01-09T02:24:24.184Z,0.00
2023-01-09T02:25:24.337Z,0.00
2023-01-09T02:26:24.384Z,0.00
2023-01-09T02:27:24.495Z,0.00
2023-01-09T02:28:24.619Z,0.00
2023-01-09T02:29:24.743Z,0.00
2023-01-09T02:30:24.861Z,0.00
2023-01-09T02:31:24.969Z,0.00
2023-01-09T02:32:25.056Z,0.00
2023-01-09T02:33:25.157Z,0.00
2023-01-09T02:34:25.291Z,0.00
2023-01-09T02:35:25.383Z,0.00
2023-01-09T02:36:25.494Z,0.00
2023-01-09T02:37:25.697Z,0.00
2023-01-09T02:38:25.703Z,0.00
2023-01-09T02:39:25.823Z,0.00
2023-01-09T02:40:25.917Z,0.00
2023-01-09T02:41:26.030Z,0.00
2023-01-09T02:42:26.151Z,0.00
2023-01-09T02:43:26.270Z,0.00
2023-01-09T02:44:26.393Z,0.00
2023-01-09T02:45:26.486Z,0.00
2023-01-09T02:46:26.559Z,0.00
2023-01-09T02:47:26.678Z,0.00
2023-01-09T02:48:26.783Z,0.00
2023-01-09T02:49:26.920Z,0.00
2023-01-09T02:50:26.982Z,0.00
2023-01-09T02:51:27.101Z,0.00
2023-01-09T02:52:27.221Z,0.00
2023-01-09T02:53:27.297Z,0.00
2023-01-09T02:54:27.440Z,0.00
2023-01-09T02:55:27.538Z,0.00
2023-01-09T02:56:27.646Z,0.00
2023-01-09T02:57:27.811Z,0.00
2023-01-09T02:58:27.857Z,0.00
2023-01-09T02:59:28.037Z,0.00
2023-01-09T03:00:28.076Z,0.00
2023-01-09T03:01:28.270Z,0.00
2023-01-09T03:02:28.349Z,0.00
2023-01-09T03:03:28.398Z,0.00
2023-01-09T03:04:28.545Z,0.00
2023-01-09T03:05:28.608Z,0.00
2023-01-09T03:06:28.696Z,0.00
2023-01-09T03:07:28.814Z,0.00
2023-01-09T03:08:28.926Z,0.00
2023-01-09T03:09:29.044Z,0.00
2023-01-09T03:10:29.134Z,0.00
2023-01-09T03:11:29.267Z,0.00
2023-01-09T03:12:29.362Z,0.00
2023-01-09T03:13:29.460Z,0.00
2023-01-09T03:14:29.572Z,0.00
2023-01-09T03:15:29.676Z,0.00
2023-01-09T03:16:29.870Z,0.00
2023-01-09T03:17:29.954Z,0.00
2023-01-09T03:18:30.011Z,0.00
2023-01-09T03:19:30.176Z,0.00
2023-01-09T03:20:30.271Z,0.00
2023-01-09T03:21:30.381Z,0.00
2023-01-09T03:22:30.482Z,0.00
2023-01-09T03:23:30.611Z,0.00
2023-01-09T03:24:30.759Z,0.00
2023-01-09T03:25:30.828Z,0.00
2023-01-09T03:26:30.919Z,0.00
2023-01-09T03:27:31.031Z,0.00
2023-01-09T03:28:31.130Z,0.00
2023-01-09T03:29:31.257Z,0.00
2023-01-09T03:30:31.356Z,0.00
2023-01-09T03:31:31.477Z,0.00
2023-01-09T03:32:31.567Z,0.00
2023-01-09T03:33:31.682Z,0.00
2023-01-09T03:34:31.896Z,0.00
2023-01-09T03:35:31.897Z,0.00
2023-01-09T03:36:32.011Z,0.00
2023-01-09T03:37:32.158Z,0.00
2023-01-09T03:38:32.208Z,0.00
2023-01-09T03:39:32.348Z,0.00
2023-01-09T03:40:32.445Z,0.00
2023-01-09T03:41:32.555Z,0.00
2023-01-09T03:42:32.664Z,0.00
2023-01-09T03:43:32.757Z,0.00
2023-01-09T03:44:32.983Z,0.00
2023-01-09T03:45:33.054Z,0.00
2023-01-09T03:46:33.088Z,0.00
2023-01-09T03:47:33.188Z,0.00
2023-01-09T03:48:33.304Z,0.00
2023-01-09T03:49:33.417Z,0.00
2023-01-09T03:50:33.510Z,0.00
2023-01-09T03:51:33.625Z,0.00
2023-01-09T03:52:35.153Z,0.00
2023-01-09T03:53:33.836Z,0.00
2023-01-09T03:54:33.961Z,0.00
2023-01-09T03:55:34.062Z,0.00
2023-01-09T03:56:34.155Z,0.00
2023-01-09T03:57:34.283Z,0.00
2023-01-09T03:58:34.380Z,0.00
2023-01-09T03:59:34.518Z,0.00
2023-01-09T04:00:34.609Z,0.00
2023-01-09T04:01:34.763Z,0.00
2023-01-09T04:02:34.852Z,0.00
2023-01-09T04:03:35.051Z,0.00
2023-01-09T04:04:35.075Z,0.00
2023-01-09T04:05:35.182Z,0.00
2023-01-09T04:06:35.285Z,0.00
2023-01-09T04:07:35.386Z,0.00
2023-01-09T04:08:35.711Z,0.00
2023-01-09T04:09:35.596Z,0.00
2023-01-09T04:10:35.713Z,0.00
2023-01-09T04:11:35.817Z,0.00
2023-01-09T04:12:35.932Z,0.00
2023-01-09T04:13:36.029Z,0.00
2023-01-09T04:14:36.147Z,0.00
2023-01-09T04:15:36.255Z,0.00
2023-01-09T04:16:36.381Z,0.00
2023-01-09T04:17:36.537Z,0.00
2023-01-09T04:18:36.557Z,0.00
2023-01-09T04:19:36.731Z,0.00
2023-01-09T04:20:36.787Z,0.00
2023-01-09T04:21:36.879Z,0.00
2023-01-09T04:22:36.979Z,0.00
2023-01-09T04:23:37.081Z,0.00
2023-01-09T04:24:37.213Z,0.00
2023-01-09T04:25:37.299Z,0.00
2023-01-09T04:26:37.409Z,0.00
2023-01-09T04:27:37.519Z,0.00
2023-01-09T04:28:37.623Z,0.00
2023-01-09T04:29:37.785Z,0.00
2023-01-09T04:30:37.868Z,0.00
2023-01-09T04:31:38.036Z,0.00
2023-01-09T04:32:38.093Z,0.00
2023-01-09T04:33:38.210Z,0.00
2023-01-09T04:34:38.324Z,0.00
2023-01-09T04:35:38.419Z,0.00
2023-01-09T04:36:38.511Z,0.00
2023-01-09T04:37:38.706Z,0.00
2023-01-09T04:38:38.741Z,0.00
2023-01-09T04:39:38.880Z,0.00
2023-01-09T04:40:38.982Z,0.00
2023-01-09T04:41:39.096Z,0.00
2023-01-09T04:42:39.183Z,0.00
2023-01-09T04:43:39.289Z,0.00
2023-01-09T04:44:39.483Z,0.00
2023-01-09T04:45:39.571Z,0.00
2023-01-09T04:46:39.667Z,0.00
2023-01-09T04:47:39.779Z,0.00
2023-01-09T04:48:39.871Z,0.00
2023-01-09T04:49:40.048Z,0.00
2023-01-09T04:50:40.088Z,0.00
2023-01-09T04:51:40.213Z,0.00
2023-01-09T04:52:40.333Z,0.00
2023-01-09T04:53:40.416Z,0.00
2023-01-09T04:54:40.604Z,0.00
2023-01-09T04:55:40.648Z,0.00
2023-01-09T04:56:40.754Z,0.00
2023-01-09T04:57:40.927Z,0.00
2023-01-09T04:58:41.000Z,0.00
2023-01-09T04:59:41.125Z,0.00
2023-01-09T05:00:41.194Z,0.00
2023-01-09T05:01:41.480Z,0.00
2023-01-09T05:02:41.415Z,0.00
2023-01-09T05:03:41.580Z,0.00
2023-01-09T05:04:41.750Z,0.00
2023-01-09T05:05:41.802Z,0.00
2023-01-09T05:06:41.913Z,0.00
2023-01-09T05:07:42.004Z,0.00
2023-01-09T05:08:42.108Z,0.00
2023-01-09T05:09:42.253Z,0.00
2023-01-09T05:10:42.353Z,0.00
2023-01-09T05:11:42.462Z,0.00
2023-01-09T05:12:42.589Z,0.00
2023-01-09T05:13:42.685Z,0.00
2023-01-09T05:14:42.822Z,0.00
2023-01-09T05:15:42.920Z,0.00
2023-01-09T05:16:43.072Z,0.00
2023-01-09T05:17:43.120Z,0.00
2023-01-09T05:18:43.231Z,0.00
2023-01-09T05:19:43.387Z,0.00
2023-01-09T05:20:43.439Z,0.00
2023-01-09T05:21:43.543Z,0.00
2023-01-09T05:22:43.655Z,0.00
2023-01-09T05:23:43.775Z,0.00
2023-01-09T05:24:43.887Z,0.00
2023-01-09T05:25:43.981Z,0.00
2023-01-09T05:26:44.105Z,0.00
2023-01-09T05:27:44.208Z,0.00
2023-01-09T05:28:44.298Z,0.00
2023-01-09T05:29:44.443Z,0.00
2023-01-09T05:30:44.542Z,0.00
2023-01-09T05:31:44.697Z,0.00
2023-01-09T05:32:44.743Z,0.00
2023-01-09T05:33:44.845Z,0.00
2023-01-09T05:34:44.987Z,0.00
2023-01-09T05:35:45.086Z,0.00
2023-01-09T05:36:45.183Z,0.00
2023-01-09T05:37:45.287Z,0.00
2023-01-09T05:38:45.393Z,0.00
2023-01-09T05:39:45.515Z,0.00
2023-01-09T05:40:45.615Z,0.00
2023-01-09T05:41:45.726Z,0.00
2023-01-09T05:42:45.891Z,0.00
2023-01-09T05:43:45.947Z,0.00
2023-01-09T05:44:46.064Z,0.00
2023-01-09T05:45:46.231Z,0.00
2023-01-09T05:46:46.261Z,0.00
2023-01-09T05:47:46.341Z,0.00
2023-01-09T05:48:46.497Z,0.00
2023-01-09T05:49:46.571Z,0.00
2023-01-09T05:50:46.721Z,0.00
2023-01-09T05:51:46.802Z,0.00
2023-01-09T05:52:46.892Z,0.00
2023-01-09T05:53:47.010Z,0.00
2023-01-09T05:54:47.101Z,0.00
2023-01-09T05:55:47.221Z,0.00
2023-01-09T05:56:47.323Z,0.00
2023-01-09T05:57:47.416Z,0.00
2023-01-09T05:58:47.542Z,0.00
2023-01-09T05:59:47.630Z,0.00
2023-01-09T06:00:47.756Z,0.00
2023-01-09T06:01:48.464Z,0.00
2023-01-09T06:02:48.028Z,0.00
2023-01-09T06:03:48.067Z,0.00
2023-01-09T06:04:48.156Z,0.00
2023-01-09T06:05:48.254Z,0.00
2023-01-09T06:06:48.357Z,0.00
2023-01-09T06:07:48.482Z,0.00
2023-01-09T06:08:48.636Z,0.00
2023-01-09T06:09:48.685Z,0.00
2023-01-09T06:10:48.793Z,0.00
2023-01-09T06:11:48.899Z,0.00
2023-01-09T06:12:49.007Z,0.00
2023-01-09T06:13:49.128Z,0.00
2023-01-09T06:14:49.227Z,0.00
2023-01-09T06:15:49.389Z,0.00
2023-01-09T06:16:49.441Z,0.00
2023-01-09T06:17:49.542Z,0.00
2023-01-09T06:18:49.690Z,0.00
2023-01-09T06:19:49.772Z,0.00
2023-01-09T06:20:49.880Z,0.00
2023-01-09T06:21:49.970Z,0.00
2023-01-09T06:22:50.117Z,0.00
2023-01-09T06:23:50.396Z,0.00
2023-01-09T06:24:50.345Z,0.00
2023-01-09T06:25:50.441Z,0.00
2023-01-09T06:26:50.569Z,0.00
2023-01-09T06:27:50.644Z,0.00
2023-01-09T06:28:50.912Z,0.00
2023-01-09T06:29:50.936Z,0.00
2023-01-09T06:30:51.054Z,0.00
2023-01-09T06:31:51.150Z,0.00
2023-01-09T06:32:51.240Z,0.00
2023-01-09T06:33:51.378Z,0.00
2023-01-09T06:34:51.489Z,0.00
2023-01-09T06:35:51.579Z,0.00
2023-01-09T06:36:51.692Z,0.00
2023-01-09T06:37:51.805Z,0.00
2023-01-09T06:38:51.908Z,0.00
2023-01-09T06:39:52.028Z,0.00
2023-01-09T06:40:52.106Z,0.00
2023-01-09T06:41:52.216Z,0.00
2023-01-09T06:42:52.354Z,0.00
2023-01-09T06:43:52.495Z,0.00
2023-01-09T06:44:52.544Z,0.00
2023-01-09T06:45:52.710Z,0.00
2023-01-09T06:46:52.774Z,0.00
2023-01-09T06:47:52.897Z,0.00
2023-01-09T06:48:53.008Z,0.00
2023-01-09T06:49:53.126Z,0.00
2023-01-09T06:50:53.219Z,0.00
2023-01-09T06:51:53.397Z,0.00
2023-01-09T06:52:53.541Z,0.00
2023-01-09T06:53:53.623Z,0.00
2023-01-09T06:54:53.769Z,0.00
2023-01-09T06:55:53.812Z,0.00
2023-01-09T06:56:53.934Z,0.00
2023-01-09T06:57:54.079Z,0.00
2023-01-09T06:58:54.172Z,0.00
2023-01-09T06:59:54.265Z,0.00
2023-01-09T07:00:54.470Z,0.00
2023-01-09T07:01:54.598Z,0.00
2023-01-09T07:02:54.661Z,4.00
2023-01-09T07:03:54.730Z,4.00
2023-01-09T07:04:54.814Z,4.00
2023-01-09T07:05:54.921Z,0.00
2023-01-09T07:06:55.017Z,0.00
2023-01-09T07:07:55.153Z,4.00
2023-01-09T07:08:55.231Z,4.00
2023-01-09T07:09:55.338Z,4.00
2023-01-09T07:10:55.518Z,4.00
2023-01-09T07:11:55.558Z,4.00
2023-01-09T07:12:55.710Z,8.00
2023-01-09T07:13:55.817Z,8.00
2023-01-09T07:14:57.612Z,8.00
2023-01-09T07:15:56.014Z,8.00
2023-01-09T07:16:56.085Z,12.00
2023-01-09T07:17:56.211Z,12.00
2023-01-09T07:18:56.305Z,16.00
2023-01-09T07:19:56.405Z,20.00
2023-01-09T07:20:56.509Z,20.00
2023-01-09T07:21:56.628Z,24.00
2023-01-09T07:22:56.756Z,24.00
2023-01-09T07:23:56.828Z,24.00
2023-01-09T07:24:56.925Z,32.00
2023-01-09T07:25:57.033Z,40.00
2023-01-09T07:26:57.145Z,48.00
2023-01-09T07:27:57.276Z,60.00
2023-01-09T07:28:57.406Z,60.00
2023-01-09T07:29:57.539Z,56.00
2023-01-09T07:30:57.633Z,64.00
2023-01-09T07:31:57.742Z,64.00
2023-01-09T07:32:57.865Z,72.00
2023-01-09T07:33:57.932Z,80.00
2023-01-09T07:34:58.042Z,96.00
2023-01-09T07:35:58.133Z,104.00
2023-01-09T07:36:58.274Z,120.00
2023-01-09T07:37:58.369Z,104.00
2023-01-09T07:38:58.460Z,136.00
2023-01-09T07:39:58.594Z,160.00
2023-01-09T07:40:59.704Z,164.00
2023-01-09T07:41:58.868Z,220.00
2023-01-09T07:42:58.970Z,208.00
2023-01-09T07:43:59.107Z,268.00
2023-01-09T07:44:59.211Z,288.00
2023-01-09T07:45:59.415Z,320.00
2023-01-09T07:46:59.456Z,348.00
2023-01-09T07:47:59.573Z,368.00
2023-01-09T07:48:59.681Z,396.00
2023-01-09T07:49:59.803Z,484.00
2023-01-09T07:50:59.917Z,500.00
2023-01-09T07:52:00.020Z,636.00
2023-01-09T07:53:00.118Z,720.00
2023-01-09T07:54:00.234Z,712.00
2023-01-09T07:55:00.338Z,824.00
2023-01-09T07:56:00.426Z,940.00
2023-01-09T07:57:00.617Z,836.00
2023-01-09T07:58:00.671Z,1080.00
2023-01-09T07:59:00.775Z,1168.00
2023-01-09T08:00:00.887Z,1500.00
2023-01-09T08:01:01.023Z,1344.00
2023-01-09T08:02:01.204Z,1152.00
2023-01-09T08:03:01.268Z,1588.00
2023-01-09T08:04:01.380Z,1688.00
2023-01-09T08:05:01.463Z,1460.00
2023-01-09T08:06:01.583Z,1476.00
2023-01-09T08:07:01.725Z,1748.00
2023-01-09T08:08:01.797Z,1752.00
2023-01-09T08:09:01.891Z,1704.00
2023-01-09T08:10:02.006Z,1620.00
2023-01-09T08:11:02.131Z,1908.00
2023-01-09T08:12:02.255Z,2024.00
2023-01-09T08:13:02.312Z,2120.00
2023-01-09T08:14:02.416Z,2264.00
2023-01-09T08:15:02.538Z,1792.00
2023-01-09T08:16:02.663Z,1880.00
2023-01-09T08:17:02.863Z,1836.00
2023-01-09T08:18:02.902Z,1768.00
2023-01-09T08:19:02.982Z,1648.00
2023-01-09T08:20:03.104Z,1068.00
2023-01-09T08:21:03.215Z,1036.00
2023-01-09T08:22:03.345Z,908.00
2023-01-09T08:23:03.510Z,1180.00
2023-01-09T08:24:03.571Z,1248.00
2023-01-09T08:25:03.682Z,1444.00
2023-01-09T08:26:03.826Z,1992.00
2023-01-09T08:27:03.939Z,2548.00
2023-01-09T08:28:04.052Z,2892.00
2023-01-09T08:29:04.149Z,3076.00
2023-01-09T08:30:04.260Z,3488.00
2023-01-09T08:31:04.498Z,3152.00
2023-01-09T08:32:04.470Z,2752.00
2023-01-09T08:33:04.576Z,2448.00
2023-01-09T08:34:04.681Z,2160.00
2023-01-09T08:35:04.852Z,2484.00
2023-01-09T08:36:04.917Z,2712.00
2023-01-09T08:37:05.008Z,2260.00
2023-01-09T08:38:05.107Z,2116.00
2023-01-09T08:39:05.227Z,2408.00
2023-01-09T08:40:05.335Z,2388.00
2023-01-09T08:41:05.448Z,2360.00
2023-01-09T08:42:05.540Z,1980.00
2023-01-09T08:43:05.661Z,2232.00
2023-01-09T08:44:05.758Z,2356.00
2023-01-09T08:45:05.870Z,2468.00
2023-01-09T08:46:06.130Z,2388.00
2023-01-09T08:47:06.115Z,2112.00
2023-01-09T08:48:06.213Z,1620.00
2023-01-09T08:49:06.343Z,2740.00
2023-01-09T08:50:06.425Z,2840.00
2023-01-09T08:51:06.525Z,2448.00
2023-01-09T08:52:06.640Z,2200.00
2023-01-09T08:53:06.747Z,2348.00
2023-01-09T08:54:06.853Z,2632.00
2023-01-09T08:55:06.974Z,2584.00
2023-01-09T08:56:07.109Z,2860.00
2023-01-09T08:57:07.220Z,2576.00
2023-01-09T08:58:07.320Z,2752.00
2023-01-09T08:59:07.434Z,2280.00
2023-01-09T09:00:07.552Z,2776.00
2023-01-09T09:01:07.671Z,2840.00
2023-01-09T09:02:07.790Z,2252.00
2023-01-09T09:03:07.982Z,2492.00
2023-01-09T09:04:07.987Z,3716.00
2023-01-09T09:05:08.099Z,4324.00
2023-01-09T09:06:08.249Z,4644.00
2023-01-09T09:07:08.388Z,5000.00
2023-01-09T09:08:08.435Z,4372.00
2023-01-09T09:09:08.543Z,6068.00
2023-01-09T09:10:08.629Z,5332.00
2023-01-09T09:11:08.781Z,6316.00
2023-01-09T09:12:08.931Z,5756.00
2023-01-09T09:13:09.040Z,3816.00
2023-01-09T09:14:09.149Z,4016.00
2023-01-09T09:15:09.267Z,5584.00
2023-01-09T09:16:09.453Z,6524.00
2023-01-09T09:17:09.550Z,6760.00
2023-01-09T09:18:09.591Z,6400.00
2023-01-09T09:19:09.724Z,6868.00
2023-01-09T09:20:09.789Z,6468.00
2023-01-09T09:21:11.442Z,8104.00
2023-01-09T09:22:10.010Z,8092.00
2023-01-09T09:23:10.105Z,7940.00
2023-01-09T09:24:10.224Z,6072.00
2023-01-09T09:25:10.316Z,6312.00
2023-01-09T09:26:10.471Z,5968.00
2023-01-09T09:27:10.588Z,4588.00
2023-01-09T09:28:10.692Z,3508.00
2023-01-09T09:29:10.796Z,3948.00
2023-01-09T09:30:10.912Z,3588.00
2023-01-09T09:31:11.034Z,3152.00
2023-01-09T09:32:11.116Z,3492.00
2023-01-09T09:33:11.243Z,4008.00
2023-01-09T09:34:11.324Z,4848.00
2023-01-09T09:35:11.468Z,5460.00
2023-01-09T09:36:11.586Z,4016.00
2023-01-09T09:37:11.778Z,4872.00
2023-01-09T09:38:11.820Z,3380.00
2023-01-09T09:39:11.902Z,3904.00
2023-01-09T09:40:18.433Z,3484.00
2023-01-09T09:41:13.164Z,3168.00
2023-01-09T09:42:12.251Z,4564.00
2023-01-09T09:43:12.362Z,4760.00
2023-01-09T09:44:12.472Z,4572.00
2023-01-09T09:45:12.570Z,4936.00
2023-01-09T09:46:12.755Z,3956.00
2023-01-09T09:47:12.819Z,4476.00
2023-01-09T09:48:12.927Z,4392.00
2023-01-09T09:49:13.036Z,3792.00
2023-01-09T09:50:13.147Z,3380.00
2023-01-09T09:51:13.267Z,3660.00
2023-01-09T09:52:13.474Z,4616.00
2023-01-09T09:53:13.496Z,5480.00
2023-01-09T09:54:14.092Z,5776.00
2023-01-09T09:55:13.708Z,6624.00
2023-01-09T09:56:13.836Z,6240.00
2023-01-09T09:57:14.159Z,6096.00
2023-01-09T09:58:14.057Z,5800.00
2023-01-09T09:59:14.161Z,5248.00
2023-01-09T10:00:14.291Z,5524.00
2023-01-09T10:01:14.388Z,4556.00
2023-01-09T10:02:14.603Z,3888.00
2023-01-09T10:03:18.356Z,3680.00
2023-01-09T10:04:15.697Z,3996.00
2023-01-09T10:05:14.883Z,4528.00
2023-01-09T10:06:14.958Z,4744.00
2023-01-09T10:07:15.082Z,4748.00
2023-01-09T10:08:16.208Z,4928.00
2023-01-09T10:09:15.316Z,5752.00
2023-01-09T10:10:15.451Z,3932.00
2023-01-09T10:11:15.523Z,3876.00
2023-01-09T10:12:15.638Z,3568.00
2023-01-09T10:13:15.734Z,3112.00
2023-01-09T10:14:23.568Z,2664.00
2023-01-09T10:15:16.964Z,1984.00
2023-01-09T10:16:16.126Z,1840.00
2023-01-09T10:17:16.174Z,1940.00
2023-01-09T10:18:16.258Z,2432.00
2023-01-09T10:19:16.372Z,2360.00
2023-01-09T10:20:16.492Z,2500.00
2023-01-09T10:21:16.648Z,3028.00
2023-01-09T10:22:16.708Z,3676.00
2023-01-09T10:23:16.811Z,3440.00
2023-01-09T10:24:16.933Z,3616.00
2023-01-09T10:25:17.029Z,4520.00
2023-01-09T10:26:17.167Z,4492.00
2023-01-09T10:27:17.271Z,3140.00
2023-01-09T10:28:17.380Z,3160.00
2023-01-09T10:29:17.467Z,4388.00
2023-01-09T10:30:17.591Z,3736.00
2023-01-09T10:31:17.718Z,4248.00
2023-01-09T10:32:17.813Z,4660.00
2023-01-09T10:33:17.923Z,4788.00
2023-01-09T10:34:18.029Z,4356.00
2023-01-09T10:35:18.120Z,4940.00
2023-01-09T10:36:18.284Z,4864.00
2023-01-09T10:37:18.409Z,5088.00
2023-01-09T10:38:18.448Z,3980.00
2023-01-09T10:39:18.548Z,4764.00
2023-01-09T10:40:18.686Z,4972.00
2023-01-09T10:41:18.804Z,4680.00
2023-01-09T10:42:18.908Z,4300.00
2023-01-09T10:43:19.011Z,3996.00
2023-01-09T10:44:19.135Z,3896.00
2023-01-09T10:45:19.210Z,4156.00
2023-01-09T10:46:19.388Z,4804.00
2023-01-09T10:47:19.444Z,3884.00
2023-01-09T10:48:19.544Z,3244.00
2023-01-09T10:49:19.669Z,3724.00
2023-01-09T10:50:19.877Z,3876.00
2023-01-09T10:51:19.941Z,3080.00
2023-01-09T10:52:20.033Z,5668.00
2023-01-09T10:53:20.089Z,5436.00
2023-01-09T10:54:20.212Z,3532.00
2023-01-09T10:55:20.332Z,3768.00
2023-01-09T10:56:20.548Z,2888.00
2023-01-09T10:57:20.623Z,2500.00
2023-01-09T10:58:20.647Z,4084.00
2023-01-09T10:59:20.777Z,2844.00
2023-01-09T11:00:23.195Z,3276.00
2023-01-09T11:01:20.985Z,3728.00
2023-01-09T11:02:21.120Z,3632.00
2023-01-09T11:03:21.318Z,6084.00
2023-01-09T11:04:21.405Z,5192.00
2023-01-09T11:05:21.473Z,7132.00
2023-01-09T11:06:21.672Z,8588.00
2023-01-09T11:07:21.711Z,8912.00
2023-01-09T11:08:21.819Z,8652.00
2023-01-09T11:09:21.920Z,7152.00
2023-01-09T11:10:22.021Z,8900.00
2023-01-09T11:11:22.250Z,7396.00
2023-01-09T11:12:22.231Z,7400.00
2023-01-09T11:13:22.341Z,7416.00
2023-01-09T11:14:22.477Z,7516.00
2023-01-09T11:15:22.570Z,7252.00
2023-01-09T11:16:22.743Z,6768.00
2023-01-09T11:17:22.847Z,5920.00
2023-01-09T11:18:22.890Z,6844.00
2023-01-09T11:19:23.016Z,7792.00
2023-01-09T11:20:23.115Z,8564.00
2023-01-09T11:21:23.267Z,8440.00
2023-01-09T11:22:23.313Z,7216.00
2023-01-09T11:23:23.418Z,6884.00
2023-01-09T11:24:23.527Z,6620.00
2023-01-09T11:25:23.640Z,5848.00
2023-01-09T11:26:23.787Z,5696.00
2023-01-09T11:27:24.211Z,6112.00
2023-01-09T11:28:23.948Z,6652.00
2023-01-09T11:29:24.056Z,6204.00
2023-01-09T11:30:24.193Z,6048.00
2023-01-09T11:31:24.385Z,6296.00
2023-01-09T11:32:24.392Z,5956.00
2023-01-09T11:33:24.513Z,6132.00
2023-01-09T11:34:24.613Z,7768.00
2023-01-09T11:35:24.707Z,8512.00
2023-01-09T11:36:25.725Z,9084.00
2023-01-09T11:37:24.955Z,9472.00
2023-01-09T11:38:25.038Z,7292.00
2023-01-09T11:39:25.153Z,7492.00
2023-01-09T11:40:25.296Z,6624.00
2023-01-09T11:41:25.402Z,5372.00
2023-01-09T11:42:25.494Z,5272.00
2023-01-09T11:43:25.612Z,4776.00
2023-01-09T11:44:25.693Z,3788.00
2023-01-09T11:45:25.796Z,3232.00
2023-01-09T11:46:25.958Z,3424.00
2023-01-09T11:47:26.025Z,4484.00
2023-01-09T11:48:26.153Z,3460.00
2023-01-09T11:49:26.243Z,2816.00
2023-01-09T11:50:26.362Z,2544.00
2023-01-09T11:51:26.481Z,2128.00
2023-01-09T11:52:26.581Z,2284.00
2023-01-09T11:53:26.684Z,2952.00
2023-01-09T11:54:26.798Z,4636.00
2023-01-09T11:55:34.707Z,4212.00
2023-01-09T11:56:28.023Z,3984.00
2023-01-09T11:57:27.207Z,3136.00
2023-01-09T11:58:27.232Z,3308.00
2023-01-09T11:59:27.337Z,2356.00
2023-01-09T12:00:27.448Z,2312.00
2023-01-09T12:01:27.562Z,2940.00
2023-01-09T12:02:27.682Z,3636.00
2023-01-09T12:03:27.821Z,3528.00
2023-01-09T12:04:27.881Z,3300.00
2023-01-09T12:05:27.985Z,4196.00
2023-01-09T12:06:28.148Z,4028.00
2023-01-09T12:07:28.215Z,4832.00
2023-01-09T12:08:28.307Z,5184.00
2023-01-09T12:09:28.421Z,5968.00
2023-01-09T12:10:28.518Z,6056.00
2023-01-09T12:11:28.688Z,6048.00
2023-01-09T12:12:28.726Z,6352.00
2023-01-09T12:13:28.846Z,6456.00
2023-01-09T12:14:28.964Z,5916.00
2023-01-09T12:15:29.056Z,6216.00
2023-01-09T12:16:29.224Z,6524.00
2023-01-09T12:17:29.384Z,6144.00
2023-01-09T12:18:29.398Z,5012.00
2023-01-09T12:19:29.515Z,4788.00
2023-01-09T12:20:29.600Z,5940.00
2023-01-09T12:21:29.705Z,4680.00
2023-01-09T12:22:29.842Z,5716.00
2023-01-09T12:23:29.972Z,6800.00
2023-01-09T12:24:30.046Z,6784.00
2023-01-09T12:25:30.177Z,5468.00
2023-01-09T12:26:30.272Z,3972.00
2023-01-09T12:27:30.424Z,5752.00
2023-01-09T12:28:30.478Z,4652.00
2023-01-09T12:29:30.616Z,5060.00
2023-01-09T12:30:30.716Z,4580.00
2023-01-09T12:31:30.866Z,6800.00
2023-01-09T12:32:30.975Z,7476.00
2023-01-09T12:33:31.085Z,5916.00
2023-01-09T12:34:31.222Z,3984.00
2023-01-09T12:35:31.321Z,5948.00
2023-01-09T12:36:31.536Z,4996.00
2023-01-09T12:37:31.794Z,5436.00
2023-01-09T12:38:31.690Z,5016.00
2023-01-09T12:39:31.797Z,4208.00
2023-01-09T12:40:31.904Z,4860.00
2023-01-09T12:41:32.012Z,5596.00
2023-01-09T12:42:32.149Z,6384.00
2023-01-09T12:43:32.199Z,7164.00
2023-01-09T12:44:35.966Z,6720.00
2023-01-09T12:45:32.499Z,5920.00
2023-01-09T12:46:32.590Z,5500.00
2023-01-09T12:47:32.727Z,5808.00
2023-01-09T12:48:32.825Z,4552.00